createdAt,value
2018-02-13T00:01:50.520Z,-1.74
2018-02-13T00:04:18.358Z,-1.82
2018-02-13T00:06:47.178Z,-1.63
2018-02-13T00:09:14.858Z,-1.71
2018-02-13T00:11:42.515Z,-1.74
2018-02-13T00:14:10.923Z,-1.63
2018-02-13T00:16:39.830Z,-1.59
2018-02-13T00:19:08.066Z,-1.68
2018-02-13T00:21:36.251Z,-1.62
2018-02-13T00:24:03.774Z,-1.63
2018-02-13T00:26:33.889Z,-1.60
2018-02-13T00:29:01.779Z,-1.66
2018-02-13T00:31:30.779Z,-1.75
2018-02-13T00:33:59.285Z,-1.69
2018-02-13T00:36:26.889Z,-1.92
2018-02-13T00:38:55.748Z,-1.73
2018-02-13T00:41:24.489Z,-1.72
2018-02-13T00:43:52.791Z,-1.92
2018-02-13T00:46:21.044Z,-1.85
2018-02-13T00:48:48.599Z,-1.88
2018-02-13T00:51:16.466Z,-1.94
2018-02-13T00:53:46.652Z,-1.86
2018-02-13T00:56:14.453Z,-1.86
2018-02-13T00:58:42.058Z,-1.85
2018-02-13T01:01:09.721Z,-1.86
2018-02-13T01:03:37.495Z,-1.93
2018-02-13T01:06:05.690Z,-1.86
2018-02-13T01:08:33.234Z,-1.81
2018-02-13T01:11:00.776Z,-1.77
2018-02-13T01:13:28.670Z,-1.89
2018-02-13T01:15:56.198Z,-1.80
2018-02-13T01:18:24.276Z,-1.74
2018-02-13T01:20:51.846Z,-1.83
2018-02-13T01:23:20.005Z,-1.79
2018-02-13T01:25:47.733Z,-1.90
2018-02-13T01:28:15.284Z,-1.85
2018-02-13T01:30:42.890Z,-2.12
2018-02-13T01:33:10.437Z,-2.21
2018-02-13T01:35:43.789Z,-2.12
2018-02-13T01:38:12.018Z,-2.00
2018-02-13T01:40:39.897Z,-1.99
2018-02-13T01:43:07.582Z,-2.07
2018-02-13T01:45:35.299Z,-2.17
2018-02-13T01:48:02.976Z,-2.03
2018-02-13T01:50:30.635Z,-1.95
2018-02-13T01:52:58.254Z,-2.00
2018-02-13T01:55:25.938Z,-2.04
2018-02-13T01:57:53.624Z,-1.98
2018-02-13T02:00:21.163Z,-1.95
2018-02-13T02:02:48.766Z,-2.08
2018-02-13T02:05:16.297Z,-2.00
2018-02-13T02:07:43.867Z,-2.01
2018-02-13T02:10:11.420Z,-1.98
2018-02-13T02:12:38.974Z,-2.22
2018-02-13T02:15:06.556Z,-2.04
2018-02-13T02:17:34.080Z,-2.03
2018-02-13T02:20:01.654Z,-2.01
2018-02-13T02:22:29.181Z,-2.00
2018-02-13T02:24:56.734Z,-2.05
2018-02-13T02:27:24.334Z,-2.12
2018-02-13T02:29:51.940Z,-2.17
2018-02-13T02:32:20.442Z,-2.43
2018-02-13T02:34:47.966Z,-2.40
2018-02-13T02:37:15.523Z,-2.26
2018-02-13T02:39:43.152Z,-2.30
2018-02-13T02:42:10.704Z,-2.56
2018-02-13T02:44:38.271Z,-2.61
2018-02-13T02:47:05.907Z,-2.40
2018-02-13T02:49:33.434Z,-2.28
2018-02-13T02:52:01.011Z,-2.28
2018-02-13T02:54:28.615Z,-2.26
2018-02-13T02:56:56.273Z,-2.23
2018-02-13T02:59:23.834Z,-2.22
2018-02-13T03:01:51.368Z,-2.16
2018-02-13T03:04:18.921Z,-2.05
2018-02-13T03:06:46.442Z,-2.13
2018-02-13T03:09:13.994Z,-2.12
2018-02-13T03:11:41.557Z,-2.22
2018-02-13T03:14:09.105Z,-2.34
2018-02-13T03:16:36.635Z,-2.18
2018-02-13T03:19:04.184Z,-2.28
2018-02-13T03:21:31.714Z,-2.16
2018-02-13T03:23:59.313Z,-2.14
2018-02-13T03:26:26.840Z,-2.32
2018-02-13T03:28:54.365Z,-2.09
2018-02-13T03:31:21.929Z,-2.17
2018-02-13T03:33:49.447Z,-1.99
2018-02-13T03:36:17.017Z,-2.27
2018-02-13T03:38:44.577Z,-2.03
2018-02-13T03:41:12.249Z,-1.96
2018-02-13T03:43:39.785Z,-1.98
2018-02-13T03:46:07.459Z,-1.98
2018-02-13T03:48:35.067Z,-1.88
2018-02-13T03:51:02.726Z,-1.92
2018-02-13T03:53:31.469Z,-2.16
2018-02-13T03:56:00.870Z,-2.06
2018-02-13T03:58:30.238Z,-2.09
2018-02-13T04:00:57.835Z,-1.96
2018-02-13T04:03:25.402Z,-2.18
2018-02-13T04:05:52.952Z,-1.94
2018-02-13T04:08:20.724Z,-2.03
2018-02-13T04:10:49.607Z,-2.13
2018-02-13T04:13:17.134Z,-2.14
2018-02-13T04:15:44.762Z,-2.21
2018-02-13T04:18:12.295Z,-2.42
2018-02-13T04:20:39.846Z,-2.23
2018-02-13T04:23:07.402Z,-2.29
2018-02-13T04:25:34.976Z,-2.32
2018-02-13T04:28:02.522Z,-2.20
2018-02-13T04:30:30.194Z,-2.31
2018-02-13T04:32:57.852Z,-2.36
2018-02-13T04:35:25.449Z,-2.32
2018-02-13T04:37:52.981Z,-2.35
2018-02-13T04:40:20.830Z,-2.34
2018-02-13T04:42:48.505Z,-2.43
2018-02-13T04:45:16.063Z,-2.40
2018-02-13T04:47:43.637Z,-2.51
2018-02-13T04:50:11.168Z,-2.65
2018-02-13T04:52:38.798Z,-2.94
2018-02-13T04:55:06.303Z,-2.82
2018-02-13T04:57:33.951Z,-2.83
2018-02-13T05:00:01.479Z,-2.60
2018-02-13T05:02:29.073Z,-2.46
2018-02-13T05:04:56.732Z,-2.69
2018-02-13T05:07:24.261Z,-2.63
2018-02-13T05:09:51.810Z,-2.49
2018-02-13T05:12:19.336Z,-2.43
2018-02-13T05:14:46.890Z,-2.44
2018-02-13T05:17:14.418Z,-2.48
2018-02-13T05:19:42.001Z,-2.48
2018-02-13T05:22:09.596Z,-2.68
2018-02-13T05:24:37.150Z,-2.60
2018-02-13T05:27:04.674Z,-2.65
2018-02-13T05:29:32.253Z,-2.71
2018-02-13T05:31:59.805Z,-2.60
2018-02-13T05:34:27.454Z,-2.55
2018-02-13T05:36:55.011Z,-2.60
2018-02-13T05:39:22.564Z,-2.65
2018-02-13T05:41:51.142Z,-2.86
2018-02-13T05:44:18.720Z,-2.60
2018-02-13T05:46:46.294Z,-2.57
2018-02-13T05:49:13.823Z,-2.59
2018-02-13T05:51:41.383Z,-2.67
2018-02-13T05:54:08.926Z,-2.73
2018-02-13T05:56:36.555Z,-2.74
2018-02-13T05:59:04.174Z,-2.68
2018-02-13T06:01:31.781Z,-2.76
2018-02-13T06:03:59.388Z,-2.81
2018-02-13T06:06:26.914Z,-2.93
2018-02-13T06:08:54.504Z,-2.84
2018-02-13T06:11:22.119Z,-3.31
2018-02-13T06:13:49.726Z,-3.06
2018-02-13T06:16:17.275Z,-2.87
2018-02-13T06:18:44.853Z,-2.83
2018-02-13T06:21:12.377Z,-3.05
2018-02-13T06:23:39.962Z,-3.06
2018-02-13T06:26:07.490Z,-2.94
2018-02-13T06:28:35.089Z,-2.82
2018-02-13T06:31:02.722Z,-3.11
2018-02-13T06:33:30.261Z,-2.94
2018-02-13T06:35:57.843Z,-3.08
2018-02-13T06:38:25.422Z,-2.93
2018-02-13T06:40:53.072Z,-2.83
2018-02-13T06:43:20.649Z,-2.98
2018-02-13T06:45:48.399Z,-3.03
2018-02-13T06:48:15.924Z,-2.90
2018-02-13T06:50:43.628Z,-2.77
2018-02-13T06:53:11.154Z,-2.92
2018-02-13T06:55:38.683Z,-2.79
2018-02-13T06:58:06.298Z,-2.95
2018-02-13T07:00:33.810Z,-3.06
2018-02-13T07:03:01.368Z,-3.02
2018-02-13T07:05:28.945Z,-2.82
2018-02-13T07:07:56.493Z,-2.89
2018-02-13T07:10:24.102Z,-2.81
2018-02-13T07:12:52.492Z,-2.90
2018-02-13T07:15:20.072Z,-2.70
2018-02-13T07:17:47.626Z,-2.66
2018-02-13T07:20:15.221Z,-2.65
2018-02-13T07:22:42.806Z,-2.65
2018-02-13T07:25:10.346Z,-2.73
2018-02-13T07:27:37.941Z,-2.65
2018-02-13T07:30:05.630Z,-2.51
2018-02-13T07:32:33.267Z,-2.47
2018-02-13T07:35:00.924Z,-2.44
2018-02-13T07:37:28.536Z,-2.37
2018-02-13T07:39:58.035Z,-2.36
2018-02-13T07:42:25.574Z,-2.42
2018-02-13T07:44:53.156Z,-2.27
2018-02-13T07:47:20.899Z,-2.24
2018-02-13T07:49:48.533Z,-2.20
2018-02-13T07:52:16.077Z,-2.17
2018-02-13T07:54:43.638Z,-2.19
2018-02-13T07:57:11.187Z,-2.05
2018-02-13T07:59:38.771Z,-1.96
2018-02-13T08:02:06.444Z,-2.19
2018-02-13T08:04:33.996Z,-2.02
2018-02-13T08:07:01.566Z,-1.91
2018-02-13T08:09:29.099Z,-1.82
2018-02-13T08:11:56.772Z,-1.78
2018-02-13T08:14:24.683Z,-2.03
2018-02-13T08:16:53.952Z,-1.75
2018-02-13T08:19:26.237Z,-1.57
2018-02-13T08:21:54.059Z,-1.44
2018-02-13T08:24:22.527Z,-1.47
2018-02-13T08:26:51.266Z,-1.65
2018-02-13T08:29:18.845Z,-1.44
2018-02-13T08:31:46.369Z,-1.26
2018-02-13T08:34:14.024Z,-1.19
2018-02-13T08:36:41.551Z,-1.10
2018-02-13T08:39:09.105Z,-1.02
2018-02-13T08:41:36.703Z,-0.97
2018-02-13T08:44:04.779Z,-0.84
2018-02-13T08:46:32.310Z,-0.83
2018-02-13T08:48:59.958Z,-0.77
2018-02-13T08:51:29.761Z,-0.79
2018-02-13T08:53:58.617Z,-0.72
2018-02-13T08:56:26.157Z,-0.61
2018-02-13T08:58:53.693Z,-0.58
2018-02-13T09:01:21.245Z,-0.50
2018-02-13T09:03:50.178Z,-0.37
2018-02-13T09:06:17.730Z,-0.33
2018-02-13T09:08:45.278Z,-0.27
2018-02-13T09:11:12.851Z,-0.19
2018-02-13T09:13:40.412Z,-0.16
2018-02-13T09:16:09.322Z,-0.29
2018-02-13T09:18:36.882Z,-0.14
2018-02-13T09:21:04.915Z,-0.08
2018-02-13T09:23:33.125Z,-0.01
2018-02-13T09:26:00.688Z,0.08
2018-02-13T09:28:28.523Z,0.16
2018-02-13T09:30:56.791Z,0.15
2018-02-13T09:33:24.403Z,0.27
2018-02-13T09:35:52.017Z,0.42
2018-02-13T09:38:19.831Z,0.32
2018-02-13T09:40:47.633Z,0.50
2018-02-13T09:43:15.286Z,0.65
2018-02-13T09:45:42.866Z,0.82
2018-02-13T09:48:10.389Z,0.86
2018-02-13T09:50:38.362Z,0.94
2018-02-13T09:53:05.890Z,1.03
2018-02-13T09:55:33.622Z,1.20
2018-02-13T09:58:01.145Z,1.18
2018-02-13T10:00:31.268Z,1.20
2018-02-13T10:02:59.468Z,1.33
2018-02-13T10:05:27.762Z,1.46
2018-02-13T10:07:55.862Z,1.54
2018-02-13T10:10:36.815Z,1.54
2018-02-13T10:13:05.113Z,1.58
2018-02-13T10:15:32.697Z,1.66
2018-02-13T10:18:00.267Z,1.65
2018-02-13T10:20:28.369Z,1.77
2018-02-13T10:22:56.023Z,1.79
2018-02-13T10:25:23.603Z,1.90
2018-02-13T10:27:51.150Z,1.89
2018-02-13T10:30:18.830Z,2.00
2018-02-13T10:32:46.380Z,2.11
2018-02-13T10:35:13.930Z,2.12
2018-02-13T10:37:41.536Z,2.18
2018-02-13T10:40:09.037Z,2.32
2018-02-13T10:42:36.674Z,2.46
2018-02-13T10:45:05.214Z,2.50
2018-02-13T10:47:32.744Z,2.51
2018-02-13T10:50:00.296Z,2.63
2018-02-13T10:52:33.102Z,2.71
2018-02-13T10:55:00.703Z,2.82
2018-02-13T10:57:28.226Z,2.76
2018-02-13T10:59:57.450Z,2.77
2018-02-13T11:02:25.079Z,2.95
2018-02-13T11:04:52.626Z,3.00
2018-02-13T11:07:20.166Z,3.10
2018-02-13T11:09:47.735Z,3.06
2018-02-13T11:12:15.242Z,3.16
2018-02-13T11:14:42.821Z,3.03
2018-02-13T11:17:12.518Z,3.07
2018-02-13T11:19:40.226Z,3.16
2018-02-13T11:22:07.947Z,3.14
2018-02-13T11:24:35.475Z,3.24
2018-02-13T11:27:04.430Z,3.42
2018-02-13T11:29:31.959Z,3.42
2018-02-13T11:31:59.510Z,3.49
2018-02-13T11:34:27.003Z,3.43
2018-02-13T11:36:54.542Z,3.55
2018-02-13T11:39:22.063Z,3.59
2018-02-13T11:41:49.593Z,3.67
2018-02-13T11:46:46.705Z,3.74
2018-02-13T11:49:14.317Z,3.56
2018-02-13T11:51:44.373Z,3.43
2018-02-13T11:54:12.155Z,3.55
2018-02-13T11:56:39.682Z,3.66
2018-02-13T11:59:07.227Z,3.79
2018-02-13T12:01:34.739Z,3.82
2018-02-13T12:04:04.090Z,3.95
2018-02-13T12:06:31.696Z,3.96
2018-02-13T12:08:59.240Z,4.03
2018-02-13T12:11:27.435Z,4.01
2018-02-13T12:13:55.131Z,3.90
2018-02-13T12:16:22.694Z,4.25
2018-02-13T12:18:50.204Z,4.29
2018-02-13T12:21:17.815Z,4.15
2018-02-13T12:23:45.331Z,4.13
2018-02-13T12:26:15.311Z,4.44
2018-02-13T12:28:43.010Z,4.26
2018-02-13T12:31:10.562Z,4.29
2018-02-13T12:33:38.090Z,4.46
2018-02-13T12:36:06.409Z,4.49
2018-02-13T12:38:33.971Z,4.50
2018-02-13T12:41:01.497Z,4.53
2018-02-13T12:43:29.050Z,4.63
2018-02-13T12:45:56.576Z,4.84
2018-02-13T12:48:24.256Z,4.75
2018-02-13T12:50:51.756Z,4.60
2018-02-13T12:53:19.259Z,4.73
2018-02-13T12:55:46.811Z,4.88
2018-02-13T12:58:14.362Z,4.86
2018-02-13T13:00:42.187Z,5.01
2018-02-13T13:03:09.717Z,4.83
2018-02-13T13:05:37.296Z,4.83
2018-02-13T13:08:04.922Z,4.88
2018-02-13T13:10:32.474Z,5.21
2018-02-13T13:13:00.327Z,5.12
2018-02-13T13:15:27.930Z,5.23
2018-02-13T13:17:55.431Z,5.15
2018-02-13T13:20:25.566Z,5.22
2018-02-13T13:22:53.198Z,5.13
2018-02-13T13:25:20.741Z,4.95
2018-02-13T13:27:53.920Z,5.15
2018-02-13T13:30:21.542Z,5.18
2018-02-13T13:32:49.206Z,5.26
2018-02-13T13:35:18.443Z,5.26
2018-02-13T13:37:45.999Z,5.07
2018-02-13T13:40:14.673Z,5.15
2018-02-13T13:42:42.256Z,5.19
2018-02-13T13:45:09.774Z,5.07
2018-02-13T13:47:37.334Z,5.12
2018-02-13T13:50:04.940Z,5.25
2018-02-13T13:52:32.463Z,5.42
2018-02-13T13:55:00.333Z,5.40
2018-02-13T13:57:27.880Z,5.37
2018-02-13T13:59:55.419Z,5.50
2018-02-13T14:02:24.839Z,5.56
2018-02-13T14:04:52.650Z,5.55
2018-02-13T14:07:20.682Z,5.45
2018-02-13T14:09:49.651Z,5.35
2018-02-13T14:12:17.202Z,5.53
2018-02-13T14:14:44.781Z,5.40
2018-02-13T14:17:12.385Z,5.51
2018-02-13T14:19:39.904Z,5.49
2018-02-13T14:22:07.439Z,5.46
2018-02-13T14:24:34.943Z,5.60
2018-02-13T14:27:02.593Z,5.47
2018-02-13T14:29:30.117Z,5.43
2018-02-13T14:31:57.726Z,5.52
2018-02-13T14:34:25.250Z,5.52
2018-02-13T14:36:53.261Z,5.56
2018-02-13T14:39:21.474Z,5.39
2018-02-13T14:41:48.982Z,5.62
2018-02-13T14:44:16.534Z,5.44
2018-02-13T14:46:44.065Z,5.32
2018-02-13T14:49:11.645Z,5.46
2018-02-13T14:51:39.170Z,5.57
2018-02-13T14:54:07.121Z,5.55
2018-02-13T14:56:39.821Z,5.51
2018-02-13T14:59:07.674Z,5.72
2018-02-13T15:01:36.349Z,5.65
2018-02-13T15:04:03.902Z,5.77
2018-02-13T15:06:32.134Z,5.75
2018-02-13T15:08:59.721Z,5.94
2018-02-13T15:11:27.762Z,5.67
2018-02-13T15:13:55.288Z,5.51
2018-02-13T15:16:22.892Z,5.81
2018-02-13T15:18:50.392Z,5.86
2018-02-13T15:21:18.143Z,5.90
2018-02-13T15:23:46.105Z,5.48
2018-02-13T15:26:13.698Z,5.44
2018-02-13T15:28:41.224Z,5.84
2018-02-13T15:31:08.794Z,5.77
2018-02-13T15:33:37.277Z,5.86
2018-02-13T15:36:04.784Z,5.99
2018-02-13T15:38:32.335Z,5.96
2018-02-13T15:40:59.862Z,5.71
2018-02-13T15:43:27.467Z,5.47
2018-02-13T15:45:54.990Z,5.53
2018-02-13T15:48:22.569Z,5.44
2018-02-13T15:50:50.071Z,5.56
2018-02-13T15:53:17.586Z,5.33
2018-02-13T15:55:45.151Z,5.52
2018-02-13T15:58:12.729Z,5.58
2018-02-13T16:00:40.281Z,5.36
2018-02-13T16:03:08.657Z,5.18
2018-02-13T16:05:36.195Z,5.46
2018-02-13T16:08:03.737Z,5.19
2018-02-13T16:10:31.868Z,5.31
2018-02-13T16:12:59.458Z,5.31
2018-02-13T16:15:27.023Z,4.93
2018-02-13T16:17:54.796Z,5.20
2018-02-13T16:20:24.200Z,5.18
2018-02-13T16:22:52.800Z,4.75
2018-02-13T16:25:20.831Z,5.05
2018-02-13T16:27:49.777Z,4.99
2018-02-13T16:30:18.046Z,4.92
2018-02-13T16:32:46.759Z,4.64
2018-02-13T16:35:14.564Z,4.60
2018-02-13T16:37:42.359Z,4.17
2018-02-13T16:40:11.702Z,4.19
2018-02-13T16:42:39.343Z,4.22
2018-02-13T16:45:07.850Z,4.05
2018-02-13T16:47:36.373Z,3.83
2018-02-13T16:50:03.898Z,3.94
2018-02-13T16:52:31.424Z,3.77
2018-02-13T16:54:59.792Z,3.74
2018-02-13T16:57:27.308Z,3.72
2018-02-13T16:59:55.209Z,3.57
2018-02-13T17:02:23.050Z,3.47
2018-02-13T17:04:50.739Z,3.37
2018-02-13T17:07:18.488Z,3.28
2018-02-13T17:09:46.446Z,3.12
2018-02-13T17:12:13.996Z,3.14
2018-02-13T17:14:42.217Z,2.92
2018-02-13T17:17:10.462Z,2.73
2018-02-13T17:19:38.337Z,2.50
2018-02-13T17:22:08.784Z,2.65
2018-02-13T17:24:36.539Z,2.68
2018-02-13T17:27:04.546Z,2.53
2018-02-13T17:29:32.563Z,2.37
2018-02-13T17:32:00.233Z,2.29
2018-02-13T17:34:28.116Z,2.24
2018-02-13T17:36:56.123Z,2.13
2018-02-13T17:39:24.186Z,1.97
2018-02-13T17:41:52.322Z,1.92
2018-02-13T17:44:21.836Z,1.90
2018-02-13T17:46:51.583Z,1.79
2018-02-13T17:49:19.397Z,1.74
2018-02-13T17:51:47.488Z,1.70
2018-02-13T17:54:15.096Z,1.72
2018-02-13T17:56:42.829Z,1.68
2018-02-13T17:59:10.661Z,1.57
2018-02-13T18:01:38.190Z,1.26
2018-02-13T18:04:06.592Z,1.38
2018-02-13T18:06:36.274Z,1.28
2018-02-13T18:09:06.812Z,1.23
2018-02-13T18:11:35.317Z,1.19
2018-02-13T18:14:04.880Z,1.12
2018-02-13T18:16:34.057Z,1.07
2018-02-13T18:19:02.927Z,0.91
2018-02-13T18:21:30.733Z,0.96
2018-02-13T18:24:03.300Z,0.97
2018-02-13T18:26:33.624Z,0.94
2018-02-13T18:29:03.083Z,0.84
2018-02-13T18:31:31.295Z,0.93
2018-02-13T18:34:00.815Z,0.71
2018-02-13T18:36:28.477Z,0.78
2018-02-13T18:38:56.838Z,0.76
2018-02-13T18:41:26.477Z,0.68
2018-02-13T18:43:56.654Z,0.63
2018-02-13T18:46:25.134Z,0.45
2018-02-13T18:48:52.983Z,0.41
2018-02-13T18:51:21.006Z,0.22
2018-02-13T18:53:48.590Z,0.42
2018-02-13T18:56:16.111Z,0.45
2018-02-13T18:58:43.675Z,0.39
2018-02-13T19:01:11.196Z,0.46
2018-02-13T19:03:38.755Z,0.51
2018-02-13T19:06:06.333Z,0.50
2018-02-13T19:08:33.882Z,0.55
2018-02-13T19:11:01.405Z,0.36
2018-02-13T19:13:28.983Z,0.29
2018-02-13T19:15:56.510Z,0.24
2018-02-13T19:18:24.111Z,0.17
2018-02-13T19:20:51.639Z,-0.06
2018-02-13T19:23:19.170Z,0.11
2018-02-13T19:25:46.716Z,0.09
2018-02-13T19:28:14.270Z,0.06
2018-02-13T19:30:41.851Z,0.02
2018-02-13T19:33:09.395Z,-0.02
2018-02-13T19:35:37.029Z,0.04
2018-02-13T19:38:04.555Z,-0.10
2018-02-13T19:40:32.131Z,-0.13
2018-02-13T19:42:59.683Z,-0.10
2018-02-13T19:45:27.236Z,-0.16
2018-02-13T19:47:54.795Z,-0.20
2018-02-13T19:50:22.337Z,-0.19
2018-02-13T19:52:49.895Z,-0.23
2018-02-13T19:55:17.427Z,-0.16
2018-02-13T19:57:45.078Z,-0.15
2018-02-13T20:00:12.609Z,-0.17
2018-02-13T20:02:40.270Z,-0.25
2018-02-13T20:05:08.306Z,-0.31
2018-02-13T20:07:36.207Z,-0.27
2018-02-13T20:10:05.509Z,-0.25
2018-02-13T20:12:33.262Z,-0.64
2018-02-13T20:15:00.831Z,-0.51
2018-02-13T20:17:28.422Z,-0.47
2018-02-13T20:19:55.994Z,-0.45
2018-02-13T20:22:23.534Z,-0.37
2018-02-13T20:24:51.099Z,-0.42
2018-02-13T20:27:18.625Z,-0.47
2018-02-13T20:29:46.255Z,-0.71
2018-02-13T20:32:13.778Z,-0.63
2018-02-13T20:34:41.310Z,-0.61
2018-02-13T20:37:08.947Z,-0.94
2018-02-13T20:39:36.566Z,-0.90
2018-02-13T20:42:04.138Z,-0.87
2018-02-13T20:44:31.665Z,-0.79
2018-02-13T20:46:59.307Z,-0.61
2018-02-13T20:49:26.865Z,-0.56
2018-02-13T20:51:54.524Z,-0.72
2018-02-13T20:54:22.049Z,-0.86
2018-02-13T20:56:49.651Z,-0.67
2018-02-13T20:59:17.207Z,-0.66
2018-02-13T21:01:44.758Z,-0.82
2018-02-13T21:04:13.008Z,-0.69
2018-02-13T21:06:40.612Z,-0.64
2018-02-13T21:09:08.568Z,-0.92
2018-02-13T21:11:36.115Z,-0.73
2018-02-13T21:14:03.762Z,-0.75
2018-02-13T21:16:32.473Z,-0.80
2018-02-13T21:19:00.172Z,-0.73
2018-02-13T21:21:28.522Z,-0.71
2018-02-13T21:23:56.077Z,-0.83
2018-02-13T21:26:23.631Z,-0.72
2018-02-13T21:28:51.398Z,-0.90
2018-02-13T21:31:18.983Z,-1.00
2018-02-13T21:33:46.596Z,-0.89
2018-02-13T21:36:14.903Z,-0.82
2018-02-13T21:38:42.476Z,-0.82
2018-02-13T21:41:10.147Z,-0.71
2018-02-13T21:43:38.903Z,-0.97
2018-02-13T21:46:07.750Z,-1.19
2018-02-13T21:48:37.548Z,-0.98
2018-02-13T21:51:05.251Z,-1.00
2018-02-13T21:53:33.776Z,-1.05
2018-02-13T21:56:01.309Z,-0.93
2018-02-13T21:58:28.969Z,-0.87
2018-02-13T22:00:56.510Z,-0.95
2018-02-13T22:03:24.091Z,-1.10
2018-02-13T22:05:51.661Z,-1.04
2018-02-13T22:08:22.041Z,-1.07
2018-02-13T22:10:49.972Z,-1.23
2018-02-13T22:13:17.772Z,-1.17
2018-02-13T22:15:46.404Z,-1.11
2018-02-13T22:18:16.844Z,-1.06
2018-02-13T22:20:44.480Z,-1.09
2018-02-13T22:23:12.150Z,-1.21
2018-02-13T22:25:39.712Z,-1.23
2018-02-13T22:28:07.361Z,-1.20
2018-02-13T22:30:34.941Z,-1.12
2018-02-13T22:33:02.466Z,-1.10
2018-02-13T22:35:31.014Z,-1.24
2018-02-13T22:37:58.990Z,-1.23
2018-02-13T22:40:27.922Z,-1.12
2018-02-13T22:42:55.473Z,-1.28
2018-02-13T22:45:23.897Z,-1.18
2018-02-13T22:47:51.502Z,-1.28
2018-02-13T22:50:19.081Z,-1.32
2018-02-13T22:52:46.753Z,-1.32
2018-02-13T22:55:14.288Z,-1.34
2018-02-13T22:57:42.066Z,-1.40
2018-02-13T23:00:13.270Z,-1.34
2018-02-13T23:02:42.017Z,-1.28
2018-02-13T23:05:12.137Z,-1.38
2018-02-13T23:07:41.483Z,-1.34
2018-02-13T23:10:10.204Z,-1.42
2018-02-13T23:12:38.242Z,-1.57
2018-02-13T23:15:07.380Z,-1.41
2018-02-13T23:17:37.202Z,-1.41
2018-02-13T23:20:05.255Z,-1.44
2018-02-13T23:22:33.185Z,-1.42
2018-02-13T23:25:01.593Z,-1.38
2018-02-13T23:27:30.962Z,-1.44
2018-02-13T23:29:59.288Z,-1.41
2018-02-13T23:32:26.844Z,-1.57
2018-02-13T23:34:54.398Z,-2.17
2018-02-13T23:37:23.567Z,-1.81
2018-02-13T23:39:52.166Z,-1.93
2018-02-13T23:42:21.255Z,-1.84
2018-02-13T23:44:49.256Z,-1.81
2018-02-13T23:47:19.010Z,-1.69
2018-02-13T23:49:47.854Z,-1.65
2018-02-13T23:52:15.917Z,-1.71
2018-02-13T23:54:44.866Z,-1.80
2018-02-13T23:57:14.513Z,-1.83
2018-02-13T23:59:42.271Z,-1.91
